Item Display Status Humidity-temperature Sensor

Elevation Above Sea Level: 3 m

 

Deployed Sensor

  • Serial Number: 20199468
  • NDBC Property Number: 41830
  • Start Date: 3/19/2020 (05:24:00 Z)
  • End Date: 3/27/2022 (04:00:00 Z)
Relative Humidity [%]     6 entries per hour
Showing data from 6/5/2021 (05:00:00 Z) to 6/4/2021 (00:00:01 Z)
Previous Next [ Day | 3-Days | 7-Days ]
First Last
Prev [ Day | 3-Days | 7-Days ] Next
First Last

Start Time:     :
End Time:     :     
Time (in GMT) :00 :50 :40 :30 :20 :10
Previous Next [ Day | 3-Days | 7-Days ]
First Last
Prev [ Day | 3-Days | 7-Days ] Next
First Last


123 => good data
MM => data is determined as missing
-- => data not received/configured
Back to Top Back to Top
6/5/2021 05:00 to 4:10 94.45 95.03 95.19 95.07 94.70 93.73
6/5/2021 04:00 to 3:10 93.45 93.36 91.72 89.48 88.47 87.80
6/5/2021 03:00 to 2:10 87.43 87.22 88.78 89.85 90.08 90.51
6/5/2021 02:00 to 1:10 90.32 89.85 89.32 89.50 89.21 90.55
6/5/2021 01:00 to 0:10 92.44 92.38 92.71 91.86 88.15 82.52
6/5/2021 00:00 to 23:10 79.33 80.13 81.30 82.56 82.87 84.80
6/4/2021 23:00 to 22:10 81.06 80.15 77.48 78.82 78.14 79.95
6/4/2021 22:00 to 21:10 80.73 80.07 79.87 79.21 79.70 79.52
6/4/2021 21:00 to 20:10 80.85 79.52 79.60 78.88 78.84 78.29
6/4/2021 20:00 to 19:10 78.84 79.19 79.15 78.88 78.74 80.50
6/4/2021 19:00 to 18:10 80.09 80.15 80.81 79.83 79.13 80.59
6/4/2021 18:00 to 17:10 79.21 79.87 80.75 79.15 78.90 79.85
6/4/2021 17:00 to 16:10 79.07 79.64 80.01 80.38 80.94 80.50
6/4/2021 16:00 to 15:10 81.86 82.15 81.24 80.75 81.26 82.33
6/4/2021 15:00 to 14:10 81.04 82.02 82.85 83.38 83.22 82.80
6/4/2021 14:00 to 13:10 82.13 82.46 83.01 82.72 83.07 84.06
6/4/2021 13:00 to 12:10 83.17 84.26 84.49 82.83 77.44 76.81
6/4/2021 12:00 to 11:10 75.94 76.52 76.91 77.09 76.52 76.17
6/4/2021 11:00 to 10:10 76.87 76.62 75.92 75.90 75.12 75.45
6/4/2021 10:00 to 9:10 75.59 76.07 75.88 76.31 75.78 76.37
6/4/2021 09:00 to 8:10 76.52 76.70 77.52 78.12 77.96 78.24
6/4/2021 08:00 to 7:10 78.06 77.32 78.39 78.22 78.76 78.78
6/4/2021 07:00 to 6:10 78.86 78.53 78.61 78.26 77.71 78.16
6/4/2021 06:00 to 5:10 78.51 77.59 77.07 76.99 77.87 77.83
6/4/2021 05:00 to 4:10 78.24 79.72 78.53 77.87 79.00 78.55
6/4/2021 04:00 to 3:10 80.36 79.52 78.47 77.03 77.36 79.13
6/4/2021 03:00 to 2:10 76.97 77.96 76.42 75.80 76.81 74.71
6/4/2021 02:00 to 1:10 75.04 74.87 75.82 77.50 78.61 79.46
6/4/2021 01:00 to 0:10 77.79 77.36 76.70 76.85 77.26 76.76

 

 

 

Air Temperature [°C]     6 entries per hour
Showing data from 6/5/2021 (05:00:00 Z) to 6/4/2021 (00:00:01 Z)
Previous Next [ Day | 3-Days | 7-Days ]
First Last
Prev [ Day | 3-Days | 7-Days ] Next
First Last

Start Time:     :
End Time:     :     
Time (in GMT) :00 :50 :40 :30 :20 :10
Previous Next [ Day | 3-Days | 7-Days ]
First Last
Prev [ Day | 3-Days | 7-Days ] Next
First Last


123 => good data
MM => data is determined as missing
-- => data not received/configured
Back to Top Back to Top
6/5/2021 05:00 to 4:10 25.72 25.53 25.46 25.40 25.50 25.34
6/5/2021 04:00 to 3:10 25.26 25.23 25.29 26.39 26.40 26.72
6/5/2021 03:00 to 2:10 26.66 26.22 26.15 26.11 25.97 26.19
6/5/2021 02:00 to 1:10 26.08 26.02 25.92 25.67 25.77 25.28
6/5/2021 01:00 to 0:10 25.00 25.12 25.25 25.55 26.09 27.46
6/5/2021 00:00 to 23:10 27.48 27.50 27.14 26.94 26.79 26.70
6/4/2021 23:00 to 22:10 27.51 27.35 27.76 27.66 27.65 27.49
6/4/2021 22:00 to 21:10 27.61 27.50 27.57 27.57 27.62 27.39
6/4/2021 21:00 to 20:10 27.45 27.52 27.71 27.54 27.48 27.51
6/4/2021 20:00 to 19:10 27.56 27.67 27.71 27.73 27.49 27.55
6/4/2021 19:00 to 18:10 27.67 27.46 27.62 27.60 27.51 27.52
6/4/2021 18:00 to 17:10 27.45 27.42 27.64 27.62 27.58 27.46
6/4/2021 17:00 to 16:10 27.40 27.37 27.40 27.42 27.41 27.37
6/4/2021 16:00 to 15:10 27.32 27.33 27.21 27.13 27.18 27.36
6/4/2021 15:00 to 14:10 27.10 27.11 26.92 26.98 26.72 26.95
6/4/2021 14:00 to 13:10 26.94 26.81 26.89 26.86 26.67 26.81
6/4/2021 13:00 to 12:10 26.83 26.75 27.00 26.94 27.27 27.16
6/4/2021 12:00 to 11:10 27.25 27.23 27.19 27.32 27.19 27.16
6/4/2021 11:00 to 10:10 27.32 27.39 27.28 27.44 27.27 27.30
6/4/2021 10:00 to 9:10 27.37 27.43 27.29 27.43 27.32 27.34
6/4/2021 09:00 to 8:10 27.35 27.39 27.43 27.35 27.40 27.50
6/4/2021 08:00 to 7:10 27.40 27.53 27.49 27.39 27.46 27.53
6/4/2021 07:00 to 6:10 27.53 27.54 27.56 27.47 27.55 27.54
6/4/2021 06:00 to 5:10 27.62 27.52 27.62 27.58 27.59 27.57
6/4/2021 05:00 to 4:10 27.58 27.67 27.47 27.50 27.60 27.64
6/4/2021 04:00 to 3:10 27.60 27.59 27.75 27.65 27.56 27.73
6/4/2021 03:00 to 2:10 27.70 27.90 28.07 28.04 28.02 28.16
6/4/2021 02:00 to 1:10 28.05 27.93 27.90 27.90 27.85 27.84
6/4/2021 01:00 to 0:10 27.87 27.88 27.83 27.93 27.78 27.77